COO weather

Cadjehoun Airport
Cotonou, Atlantique, Benin

Public forecast

Using degrees Celsius for public forecast. Weather courtesy of forecast.io.

METAR (pilot weather report)

Retrieved 2019/04/20 10:00 UTC (10 minutes ago):

DBBB 201000Z 23007KT 190V260 9999 SCT013 32/26 Q1011 NOSIG

TAF (pilot weather forecast)

Retrieved 2019/04/20 06:36 UTC (4 hours ago):

TAF DBBB 200500Z 2006/2112 22010KT 9999 SCT013 TEMPO 2012/2018 TS BKN012 FEW023CB